sensor_id;sensor_type;location;lat;lon;timestamp;temperature;humidity
31765;DHT22;18338;53.240;8.798;2022-09-09T00:01:23;12.30;99.90
31765;DHT22;18338;53.240;8.798;2022-09-09T00:03:58;12.20;99.90
31765;DHT22;18338;53.240;8.798;2022-09-09T00:06:42;12.10;99.90
31765;DHT22;18338;53.240;8.798;2022-09-09T00:09:15;12.20;99.90
31765;DHT22;18338;53.240;8.798;2022-09-09T00:11:51;12.30;99.90
31765;DHT22;18338;53.240;8.798;2022-09-09T00:16:56;12.40;99.90
31765;DHT22;18338;53.240;8.798;2022-09-09T00:19:40;12.50;99.90
31765;DHT22;18338;53.240;8.798;2022-09-09T00:22:16;12.60;99.90
31765;DHT22;18338;53.240;8.798;2022-09-09T00:24:54;12.60;99.90
31765;DHT22;18338;53.240;8.798;2022-09-09T00:27:30;12.60;99.90
31765;DHT22;18338;53.240;8.798;2022-09-09T00:30:12;12.50;99.90
31765;DHT22;18338;53.240;8.798;2022-09-09T00:32:40;12.50;99.90
31765;DHT22;18338;53.240;8.798;2022-09-09T00:37:48;12.50;99.90
31765;DHT22;18338;53.240;8.798;2022-09-09T00:52:03;12.50;99.90
31765;DHT22;18338;53.240;8.798;2022-09-09T00:54:52;12.40;99.90
31765;DHT22;18338;53.240;8.798;2022-09-09T00:57:34;12.40;99.90
31765;DHT22;18338;53.240;8.798;2022-09-09T01:00:18;12.40;99.90
31765;DHT22;18338;53.240;8.798;2022-09-09T01:05:34;12.50;99.90
31765;DHT22;18338;53.240;8.798;2022-09-09T01:08:09;12.40;99.90
31765;DHT22;18338;53.240;8.798;2022-09-09T01:10:49;12.50;99.90
31765;DHT22;18338;53.240;8.798;2022-09-09T01:13:28;12.40;99.90
31765;DHT22;18338;53.240;8.798;2022-09-09T01:16:03;12.50;99.90
31765;DHT22;18338;53.240;8.798;2022-09-09T01:18:44;12.40;99.90
31765;DHT22;18338;53.240;8.798;2022-09-09T01:26:52;12.40;99.90
31765;DHT22;18338;53.240;8.798;2022-09-09T01:29:21;12.30;99.90
31765;DHT22;18338;53.240;8.798;2022-09-09T01:31:57;12.20;99.90
31765;DHT22;18338;53.240;8.798;2022-09-09T01:34:29;12.10;99.90
31765;DHT22;18338;53.240;8.798;2022-09-09T01:37:06;12.00;99.90
31765;DHT22;18338;53.240;8.798;2022-09-09T01:39:35;12.00;99.90
31765;DHT22;18338;53.240;8.798;2022-09-09T01:42:04;11.90;99.90
31765;DHT22;18338;53.240;8.798;2022-09-09T01:44:31;11.90;99.90
31765;DHT22;18338;53.240;8.798;2022-09-09T01:47:01;11.70;99.90
31765;DHT22;18338;53.240;8.798;2022-09-09T01:49:28;11.70;99.90
31765;DHT22;18338;53.240;8.798;2022-09-09T01:51:56;11.70;99.90
31765;DHT22;18338;53.240;8.798;2022-09-09T01:54:27;11.70;99.90
31765;DHT22;18338;53.240;8.798;2022-09-09T01:57:06;11.70;99.90
31765;DHT22;18338;53.240;8.798;2022-09-09T02:02:39;11.70;99.90
31765;DHT22;18338;53.240;8.798;2022-09-09T02:05:40;11.60;99.90
31765;DHT22;18338;53.240;8.798;2022-09-09T02:08:09;11.60;99.90
31765;DHT22;18338;53.240;8.798;2022-09-09T02:10:45;11.50;99.90
31765;DHT22;18338;53.240;8.798;2022-09-09T02:13:14;11.50;99.90
31765;DHT22;18338;53.240;8.798;2022-09-09T02:15:59;11.40;99.90
31765;DHT22;18338;53.240;8.798;2022-09-09T02:18:39;11.40;99.90
31765;DHT22;18338;53.240;8.798;2022-09-09T02:21:07;11.40;99.90
31765;DHT22;18338;53.240;8.798;2022-09-09T02:23:34;11.40;99.90
31765;DHT22;18338;53.240;8.798;2022-09-09T02:26:03;11.40;99.90
31765;DHT22;18338;53.240;8.798;2022-09-09T02:28:32;11.40;99.90
31765;DHT22;18338;53.240;8.798;2022-09-09T02:31:00;11.30;99.90
31765;DHT22;18338;53.240;8.798;2022-09-09T02:33:33;11.30;99.90
31765;DHT22;18338;53.240;8.798;2022-09-09T02:36:03;11.30;99.90
31765;DHT22;18338;53.240;8.798;2022-09-09T02:38:37;11.30;99.90
31765;DHT22;18338;53.240;8.798;2022-09-09T02:41:06;11.20;99.90
31765;DHT22;18338;53.240;8.798;2022-09-09T02:43:34;11.20;99.90
31765;DHT22;18338;53.240;8.798;2022-09-09T02:46:35;11.20;99.90
31765;DHT22;18338;53.240;8.798;2022-09-09T02:49:03;11.10;99.90
31765;DHT22;18338;53.240;8.798;2022-09-09T02:54:40;11.20;99.90
31765;DHT22;18338;53.240;8.798;2022-09-09T02:59:39;11.10;99.90
31765;DHT22;18338;53.240;8.798;2022-09-09T03:02:06;11.10;99.90
31765;DHT22;18338;53.240;8.798;2022-09-09T03:04:33;11.00;99.90
31765;DHT22;18338;53.240;8.798;2022-09-09T03:07:00;10.90;99.90
31765;DHT22;18338;53.240;8.798;2022-09-09T03:09:27;10.80;99.90
31765;DHT22;18338;53.240;8.798;2022-09-09T03:11:54;10.80;99.90
31765;DHT22;18338;53.240;8.798;2022-09-09T03:14:22;10.70;99.90
31765;DHT22;18338;53.240;8.798;2022-09-09T03:16:54;10.80;99.90
31765;DHT22;18338;53.240;8.798;2022-09-09T03:19:23;10.90;99.90
31765;DHT22;18338;53.240;8.798;2022-09-09T03:21:50;11.00;99.90
31765;DHT22;18338;53.240;8.798;2022-09-09T03:24:17;11.00;99.90
31765;DHT22;18338;53.240;8.798;2022-09-09T03:26:44;11.10;99.90
31765;DHT22;18338;53.240;8.798;2022-09-09T03:29:12;11.10;99.90
31765;DHT22;18338;53.240;8.798;2022-09-09T03:31:39;11.20;99.90
31765;DHT22;18338;53.240;8.798;2022-09-09T03:34:06;11.30;99.90
31765;DHT22;18338;53.240;8.798;2022-09-09T03:36:36;11.30;99.90
31765;DHT22;18338;53.240;8.798;2022-09-09T03:39:03;11.40;99.90
31765;DHT22;18338;53.240;8.798;2022-09-09T03:41:31;11.30;99.90
31765;DHT22;18338;53.240;8.798;2022-09-09T03:43:58;11.20;99.90
31765;DHT22;18338;53.240;8.798;2022-09-09T03:46:25;11.10;99.90
31765;DHT22;18338;53.240;8.798;2022-09-09T03:48:52;11.20;99.90
31765;DHT22;18338;53.240;8.798;2022-09-09T03:51:19;11.30;99.90
31765;DHT22;18338;53.240;8.798;2022-09-09T03:53:47;11.50;99.90
31765;DHT22;18338;53.240;8.798;2022-09-09T03:56:14;11.60;99.90
31765;DHT22;18338;53.240;8.798;2022-09-09T03:58:41;11.70;99.90
31765;DHT22;18338;53.240;8.798;2022-09-09T04:01:11;11.80;99.90
31765;DHT22;18338;53.240;8.798;2022-09-09T04:03:44;11.80;99.90
31765;DHT22;18338;53.240;8.798;2022-09-09T04:06:12;11.80;99.90
31765;DHT22;18338;53.240;8.798;2022-09-09T04:08:41;11.80;99.90
31765;DHT22;18338;53.240;8.798;2022-09-09T04:11:09;11.80;99.90
31765;DHT22;18338;53.240;8.798;2022-09-09T04:13:37;11.70;99.90
31765;DHT22;18338;53.240;8.798;2022-09-09T04:16:09;11.80;99.90
31765;DHT22;18338;53.240;8.798;2022-09-09T04:18:36;11.80;99.90
31765;DHT22;18338;53.240;8.798;2022-09-09T04:21:04;11.90;99.90
31765;DHT22;18338;53.240;8.798;2022-09-09T04:23:34;11.90;99.90
31765;DHT22;18338;53.240;8.798;2022-09-09T04:26:06;11.90;99.90
31765;DHT22;18338;53.240;8.798;2022-09-09T04:28:49;11.90;99.90
31765;DHT22;18338;53.240;8.798;2022-09-09T04:31:30;11.90;99.90
31765;DHT22;18338;53.240;8.798;2022-09-09T04:33:57;12.00;99.90
31765;DHT22;18338;53.240;8.798;2022-09-09T04:36:31;12.00;99.90
31765;DHT22;18338;53.240;8.798;2022-09-09T04:38:59;12.10;99.90
31765;DHT22;18338;53.240;8.798;2022-09-09T04:41:25;12.10;99.90
31765;DHT22;18338;53.240;8.798;2022-09-09T04:43:52;12.20;99.90
31765;DHT22;18338;53.240;8.798;2022-09-09T04:46:21;12.30;99.90
31765;DHT22;18338;53.240;8.798;2022-09-09T04:48:49;12.40;99.90
31765;DHT22;18338;53.240;8.798;2022-09-09T04:51:16;12.50;99.90
31765;DHT22;18338;53.240;8.798;2022-09-09T04:53:43;12.50;99.90
31765;DHT22;18338;53.240;8.798;2022-09-09T04:56:15;12.60;99.90
31765;DHT22;18338;53.240;8.798;2022-09-09T04:58:42;12.60;99.90
31765;DHT22;18338;53.240;8.798;2022-09-09T05:01:12;12.60;99.90
31765;DHT22;18338;53.240;8.798;2022-09-09T05:03:40;12.70;99.90
31765;DHT22;18338;53.240;8.798;2022-09-09T05:06:09;12.70;99.90
31765;DHT22;18338;53.240;8.798;2022-09-09T05:08:40;12.80;99.90
31765;DHT22;18338;53.240;8.798;2022-09-09T05:11:27;12.80;99.90
31765;DHT22;18338;53.240;8.798;2022-09-09T05:13:54;12.80;99.90
31765;DHT22;18338;53.240;8.798;2022-09-09T05:16:21;12.90;99.90
31765;DHT22;18338;53.240;8.798;2022-09-09T05:18:49;12.80;99.90
31765;DHT22;18338;53.240;8.798;2022-09-09T05:21:19;12.90;99.90
31765;DHT22;18338;53.240;8.798;2022-09-09T05:23:47;12.90;99.90
31765;DHT22;18338;53.240;8.798;2022-09-09T05:26:16;12.90;99.90
31765;DHT22;18338;53.240;8.798;2022-09-09T05:28:44;12.80;99.90
31765;DHT22;18338;53.240;8.798;2022-09-09T05:31:12;12.70;99.90
31765;DHT22;18338;53.240;8.798;2022-09-09T05:33:44;12.70;99.90
31765;DHT22;18338;53.240;8.798;2022-09-09T05:36:14;12.60;99.90
31765;DHT22;18338;53.240;8.798;2022-09-09T05:38:42;12.50;99.90
31765;DHT22;18338;53.240;8.798;2022-09-09T05:41:10;12.50;99.90
31765;DHT22;18338;53.240;8.798;2022-09-09T05:43:42;12.50;99.90
31765;DHT22;18338;53.240;8.798;2022-09-09T05:46:22;12.60;99.90
31765;DHT22;18338;53.240;8.798;2022-09-09T05:48:50;12.60;99.90
31765;DHT22;18338;53.240;8.798;2022-09-09T05:51:23;12.70;99.90
31765;DHT22;18338;53.240;8.798;2022-09-09T05:53:50;12.80;99.90
31765;DHT22;18338;53.240;8.798;2022-09-09T05:56:23;12.80;99.90
31765;DHT22;18338;53.240;8.798;2022-09-09T05:58:52;12.80;99.90
31765;DHT22;18338;53.240;8.798;2022-09-09T06:01:26;12.90;99.90
31765;DHT22;18338;53.240;8.798;2022-09-09T06:03:53;13.00;99.90
31765;DHT22;18338;53.240;8.798;2022-09-09T06:06:22;13.00;99.90
31765;DHT22;18338;53.240;8.798;2022-09-09T06:08:52;13.10;99.90
31765;DHT22;18338;53.240;8.798;2022-09-09T06:11:24;13.20;99.90
31765;DHT22;18338;53.240;8.798;2022-09-09T06:13:51;13.20;99.90
31765;DHT22;18338;53.240;8.798;2022-09-09T06:16:25;13.40;99.90
31765;DHT22;18338;53.240;8.798;2022-09-09T06:18:54;13.50;99.90
31765;DHT22;18338;53.240;8.798;2022-09-09T06:21:23;13.60;99.90
31765;DHT22;18338;53.240;8.798;2022-09-09T06:23:50;13.70;99.90
31765;DHT22;18338;53.240;8.798;2022-09-09T06:26:28;13.70;99.90
31765;DHT22;18338;53.240;8.798;2022-09-09T06:29:08;13.70;99.90
31765;DHT22;18338;53.240;8.798;2022-09-09T06:31:36;13.60;99.90
31765;DHT22;18338;53.240;8.798;2022-09-09T06:34:08;13.50;99.90
31765;DHT22;18338;53.240;8.798;2022-09-09T06:36:50;13.50;99.90
31765;DHT22;18338;53.240;8.798;2022-09-09T06:39:22;13.50;99.90
31765;DHT22;18338;53.240;8.798;2022-09-09T06:41:49;13.50;99.90
31765;DHT22;18338;53.240;8.798;2022-09-09T06:44:16;13.60;99.90
31765;DHT22;18338;53.240;8.798;2022-09-09T06:46:43;13.70;99.90
31765;DHT22;18338;53.240;8.798;2022-09-09T06:49:10;13.80;99.90
31765;DHT22;18338;53.240;8.798;2022-09-09T06:51:37;13.90;99.90
31765;DHT22;18338;53.240;8.798;2022-09-09T06:54:11;14.00;99.90
31765;DHT22;18338;53.240;8.798;2022-09-09T06:56:56;14.10;99.90
31765;DHT22;18338;53.240;8.798;2022-09-09T06:59:53;14.20;99.90
31765;DHT22;18338;53.240;8.798;2022-09-09T07:02:21;14.40;99.90
31765;DHT22;18338;53.240;8.798;2022-09-09T07:04:48;14.40;99.90
31765;DHT22;18338;53.240;8.798;2022-09-09T07:07:17;14.50;99.90
31765;DHT22;18338;53.240;8.798;2022-09-09T07:09:44;14.60;99.90
31765;DHT22;18338;53.240;8.798;2022-09-09T07:12:15;14.90;99.90
31765;DHT22;18338;53.240;8.798;2022-09-09T07:14:42;15.00;99.90
31765;DHT22;18338;53.240;8.798;2022-09-09T07:27:56;14.90;99.90
31765;DHT22;18338;53.240;8.798;2022-09-09T07:30:23;15.00;99.90
31765;DHT22;18338;53.240;8.798;2022-09-09T07:32:53;15.10;99.90
31765;DHT22;18338;53.240;8.798;2022-09-09T07:35:20;15.30;99.90
31765;DHT22;18338;53.240;8.798;2022-09-09T07:37:47;15.40;99.90
31765;DHT22;18338;53.240;8.798;2022-09-09T07:40:16;15.50;99.90
31765;DHT22;18338;53.240;8.798;2022-09-09T07:42:43;15.50;99.90
31765;DHT22;18338;53.240;8.798;2022-09-09T07:45:10;15.70;99.90
31765;DHT22;18338;53.240;8.798;2022-09-09T07:47:36;15.80;99.90
31765;DHT22;18338;53.240;8.798;2022-09-09T07:50:03;15.90;99.90
31765;DHT22;18338;53.240;8.798;2022-09-09T07:52:30;16.10;99.90
31765;DHT22;18338;53.240;8.798;2022-09-09T07:54:57;16.10;99.90
31765;DHT22;18338;53.240;8.798;2022-09-09T07:57:24;16.10;99.90
31765;DHT22;18338;53.240;8.798;2022-09-09T07:59:54;16.00;99.90
31765;DHT22;18338;53.240;8.798;2022-09-09T08:02:28;16.20;99.90
31765;DHT22;18338;53.240;8.798;2022-09-09T08:05:05;16.30;99.90
31765;DHT22;18338;53.240;8.798;2022-09-09T08:07:35;16.50;99.90
31765;DHT22;18338;53.240;8.798;2022-09-09T08:10:05;16.60;99.90
31765;DHT22;18338;53.240;8.798;2022-09-09T08:12:35;16.70;99.90
31765;DHT22;18338;53.240;8.798;2022-09-09T08:15:02;16.70;99.90
31765;DHT22;18338;53.240;8.798;2022-09-09T08:17:29;16.90;99.90
31765;DHT22;18338;53.240;8.798;2022-09-09T08:19:56;16.90;99.90
31765;DHT22;18338;53.240;8.798;2022-09-09T08:22:22;16.90;99.90
31765;DHT22;18338;53.240;8.798;2022-09-09T08:24:51;17.00;99.90
31765;DHT22;18338;53.240;8.798;2022-09-09T08:27:18;17.10;99.90
31765;DHT22;18338;53.240;8.798;2022-09-09T08:29:45;17.30;99.90
31765;DHT22;18338;53.240;8.798;2022-09-09T08:32:13;17.40;99.90
31765;DHT22;18338;53.240;8.798;2022-09-09T08:34:39;18.00;99.90
31765;DHT22;18338;53.240;8.798;2022-09-09T08:37:15;20.10;99.90
31765;DHT22;18338;53.240;8.798;2022-09-09T08:39:42;21.50;99.90
31765;DHT22;18338;53.240;8.798;2022-09-09T08:42:34;23.70;99.90
31765;DHT22;18338;53.240;8.798;2022-09-09T08:48:19;27.00;99.90
31765;DHT22;18338;53.240;8.798;2022-09-09T08:50:51;27.70;99.90
31765;DHT22;18338;53.240;8.798;2022-09-09T08:53:39;29.50;99.90
31765;DHT22;18338;53.240;8.798;2022-09-09T08:56:14;30.80;99.90
31765;DHT22;18338;53.240;8.798;2022-09-09T08:58:53;30.50;99.90
31765;DHT22;18338;53.240;8.798;2022-09-09T09:07:23;25.60;99.90
31765;DHT22;18338;53.240;8.798;2022-09-09T09:12:36;24.40;99.90
31765;DHT22;18338;53.240;8.798;2022-09-09T09:15:14;24.20;99.90
31765;DHT22;18338;53.240;8.798;2022-09-09T09:17:43;23.70;99.90
31765;DHT22;18338;53.240;8.798;2022-09-09T09:20:15;25.20;99.90
31765;DHT22;18338;53.240;8.798;2022-09-09T09:22:51;28.20;99.90
31765;DHT22;18338;53.240;8.798;2022-09-09T09:25:23;30.90;99.90
31765;DHT22;18338;53.240;8.798;2022-09-09T09:30:44;34.20;99.90
31765;DHT22;18338;53.240;8.798;2022-09-09T09:33:20;34.20;96.30
31765;DHT22;18338;53.240;8.798;2022-09-09T09:35:49;31.40;97.30
31765;DHT22;18338;53.240;8.798;2022-09-09T09:38:23;28.50;99.90
31765;DHT22;18338;53.240;8.798;2022-09-09T09:41:10;26.40;99.90
31765;DHT22;18338;53.240;8.798;2022-09-09T09:43:40;24.50;99.90
31765;DHT22;18338;53.240;8.798;2022-09-09T09:46:20;23.20;99.90
31765;DHT22;18338;53.240;8.798;2022-09-09T09:49:03;22.40;99.90
31765;DHT22;18338;53.240;8.798;2022-09-09T09:51:33;22.50;99.90
31765;DHT22;18338;53.240;8.798;2022-09-09T09:57:10;23.00;99.90
31765;DHT22;18338;53.240;8.798;2022-09-09T09:59:38;22.50;99.90
31765;DHT22;18338;53.240;8.798;2022-09-09T10:04:46;21.70;99.90
31765;DHT22;18338;53.240;8.798;2022-09-09T10:07:20;21.90;99.90
31765;DHT22;18338;53.240;8.798;2022-09-09T10:09:55;23.60;99.90
31765;DHT22;18338;53.240;8.798;2022-09-09T10:12:38;24.30;99.90
31765;DHT22;18338;53.240;8.798;2022-09-09T10:26:10;27.10;99.90
31765;DHT22;18338;53.240;8.798;2022-09-09T10:28:55;26.00;99.90
31765;DHT22;18338;53.240;8.798;2022-09-09T10:37:48;22.90;99.90
31765;DHT22;18338;53.240;8.798;2022-09-09T10:46:06;22.80;99.90
31765;DHT22;18338;53.240;8.798;2022-09-09T10:51:43;25.20;99.90
31765;DHT22;18338;53.240;8.798;2022-09-09T10:56:48;25.00;99.90
31765;DHT22;18338;53.240;8.798;2022-09-09T10:59:20;25.60;99.90
31765;DHT22;18338;53.240;8.798;2022-09-09T11:05:15;25.80;99.90
31765;DHT22;18338;53.240;8.798;2022-09-09T11:07:48;26.60;99.90
31765;DHT22;18338;53.240;8.798;2022-09-09T11:13:42;27.20;99.90
31765;DHT22;18338;53.240;8.798;2022-09-09T11:18:50;27.40;99.90
31765;DHT22;18338;53.240;8.798;2022-09-09T11:21:22;28.10;99.90
31765;DHT22;18338;53.240;8.798;2022-09-09T11:23:56;28.50;99.90
31765;DHT22;18338;53.240;8.798;2022-09-09T11:26:37;29.20;96.50
31765;DHT22;18338;53.240;8.798;2022-09-09T11:34:56;28.10;98.90
31765;DHT22;18338;53.240;8.798;2022-09-09T11:37:38;27.90;99.10
31765;DHT22;18338;53.240;8.798;2022-09-09T11:42:40;26.60;99.90
31765;DHT22;18338;53.240;8.798;2022-09-09T11:45:31;25.60;99.90
31765;DHT22;18338;53.240;8.798;2022-09-09T11:47:58;26.20;99.90
31765;DHT22;18338;53.240;8.798;2022-09-09T11:55:40;27.90;99.90
31765;DHT22;18338;53.240;8.798;2022-09-09T12:00:39;28.40;99.00
31765;DHT22;18338;53.240;8.798;2022-09-09T12:03:40;28.50;99.00
31765;DHT22;18338;53.240;8.798;2022-09-09T12:06:13;28.80;98.20
31765;DHT22;18338;53.240;8.798;2022-09-09T12:08:43;28.50;98.50
31765;DHT22;18338;53.240;8.798;2022-09-09T12:11:11;28.50;98.70
31765;DHT22;18338;53.240;8.798;2022-09-09T12:13:38;28.50;98.30
31765;DHT22;18338;53.240;8.798;2022-09-09T12:16:05;28.00;98.10
31765;DHT22;18338;53.240;8.798;2022-09-09T12:18:33;26.80;99.80
31765;DHT22;18338;53.240;8.798;2022-09-09T12:21:41;25.40;99.90
31765;DHT22;18338;53.240;8.798;2022-09-09T12:24:11;24.40;99.90
31765;DHT22;18338;53.240;8.798;2022-09-09T12:26:49;23.70;99.90
31765;DHT22;18338;53.240;8.798;2022-09-09T12:29:32;23.10;99.90
31765;DHT22;18338;53.240;8.798;2022-09-09T12:32:31;22.70;99.90
31765;DHT22;18338;53.240;8.798;2022-09-09T12:35:10;22.30;99.90
31765;DHT22;18338;53.240;8.798;2022-09-09T12:37:47;22.00;99.90
31765;DHT22;18338;53.240;8.798;2022-09-09T12:40:24;21.80;99.90
31765;DHT22;18338;53.240;8.798;2022-09-09T12:42:51;21.70;99.90
31765;DHT22;18338;53.240;8.798;2022-09-09T12:45:23;21.30;99.90
31765;DHT22;18338;53.240;8.798;2022-09-09T12:47:55;21.10;99.90
31765;DHT22;18338;53.240;8.798;2022-09-09T12:50:26;20.80;99.90
31765;DHT22;18338;53.240;8.798;2022-09-09T12:52:59;20.60;99.90
31765;DHT22;18338;53.240;8.798;2022-09-09T12:55:31;20.40;99.90
31765;DHT22;18338;53.240;8.798;2022-09-09T12:58:01;20.30;99.90
31765;DHT22;18338;53.240;8.798;2022-09-09T13:00:31;20.20;99.90
31765;DHT22;18338;53.240;8.798;2022-09-09T13:03:00;20.10;99.90
31765;DHT22;18338;53.240;8.798;2022-09-09T13:05:36;20.10;99.90
31765;DHT22;18338;53.240;8.798;2022-09-09T13:08:06;20.10;99.90
31765;DHT22;18338;53.240;8.798;2022-09-09T13:10:38;20.00;99.90
31765;DHT22;18338;53.240;8.798;2022-09-09T13:13:23;20.00;99.90
31765;DHT22;18338;53.240;8.798;2022-09-09T13:15:53;20.00;99.90
31765;DHT22;18338;53.240;8.798;2022-09-09T13:18:23;20.00;99.90
31765;DHT22;18338;53.240;8.798;2022-09-09T13:20:50;20.10;99.90
31765;DHT22;18338;53.240;8.798;2022-09-09T13:23:19;20.20;99.90
31765;DHT22;18338;53.240;8.798;2022-09-09T13:25:58;20.30;99.90
31765;DHT22;18338;53.240;8.798;2022-09-09T13:28:28;20.50;99.90
31765;DHT22;18338;53.240;8.798;2022-09-09T13:31:01;20.70;99.90
31765;DHT22;18338;53.240;8.798;2022-09-09T13:33:34;20.80;99.90
31765;DHT22;18338;53.240;8.798;2022-09-09T13:36:09;21.10;99.90
31765;DHT22;18338;53.240;8.798;2022-09-09T13:38:40;21.40;99.90
31765;DHT22;18338;53.240;8.798;2022-09-09T13:41:09;21.60;99.90
31765;DHT22;18338;53.240;8.798;2022-09-09T13:43:38;21.80;99.90
31765;DHT22;18338;53.240;8.798;2022-09-09T13:46:32;21.80;99.90
31765;DHT22;18338;53.240;8.798;2022-09-09T13:51:50;22.10;99.90
31765;DHT22;18338;53.240;8.798;2022-09-09T13:54:20;22.20;99.90
31765;DHT22;18338;53.240;8.798;2022-09-09T13:56:47;22.20;99.90
31765;DHT22;18338;53.240;8.798;2022-09-09T13:59:16;22.10;99.90
31765;DHT22;18338;53.240;8.798;2022-09-09T14:01:43;22.20;99.90
31765;DHT22;18338;53.240;8.798;2022-09-09T14:04:11;22.10;99.90
31765;DHT22;18338;53.240;8.798;2022-09-09T14:06:38;21.80;99.90
31765;DHT22;18338;53.240;8.798;2022-09-09T14:09:10;21.80;99.90
31765;DHT22;18338;53.240;8.798;2022-09-09T14:11:37;21.50;99.90
31765;DHT22;18338;53.240;8.798;2022-09-09T14:14:04;21.30;99.90
31765;DHT22;18338;53.240;8.798;2022-09-09T14:16:32;21.20;99.90
31765;DHT22;18338;53.240;8.798;2022-09-09T14:18:59;21.00;99.90
31765;DHT22;18338;53.240;8.798;2022-09-09T14:21:27;20.60;99.90
31765;DHT22;18338;53.240;8.798;2022-09-09T14:23:54;20.10;99.90
31765;DHT22;18338;53.240;8.798;2022-09-09T14:26:22;19.60;99.90
31765;DHT22;18338;53.240;8.798;2022-09-09T14:28:50;19.20;99.90
31765;DHT22;18338;53.240;8.798;2022-09-09T14:31:25;19.00;99.90
31765;DHT22;18338;53.240;8.798;2022-09-09T14:33:52;18.80;99.90
31765;DHT22;18338;53.240;8.798;2022-09-09T14:36:20;18.60;99.90
31765;DHT22;18338;53.240;8.798;2022-09-09T14:38:47;18.40;99.90
31765;DHT22;18338;53.240;8.798;2022-09-09T14:41:15;18.30;99.90
31765;DHT22;18338;53.240;8.798;2022-09-09T14:43:46;18.30;99.90
31765;DHT22;18338;53.240;8.798;2022-09-09T14:46:15;18.30;99.90
31765;DHT22;18338;53.240;8.798;2022-09-09T14:48:43;18.10;99.90
31765;DHT22;18338;53.240;8.798;2022-09-09T14:51:13;18.00;99.90
31765;DHT22;18338;53.240;8.798;2022-09-09T14:53:40;17.80;99.90
31765;DHT22;18338;53.240;8.798;2022-09-09T14:56:13;17.70;99.90
31765;DHT22;18338;53.240;8.798;2022-09-09T14:58:40;17.60;99.90
31765;DHT22;18338;53.240;8.798;2022-09-09T15:01:13;17.50;99.90
31765;DHT22;18338;53.240;8.798;2022-09-09T15:03:41;17.50;99.90
31765;DHT22;18338;53.240;8.798;2022-09-09T15:06:13;17.50;99.90
31765;DHT22;18338;53.240;8.798;2022-09-09T15:08:42;17.50;99.90
31765;DHT22;18338;53.240;8.798;2022-09-09T15:11:10;17.40;99.90
31765;DHT22;18338;53.240;8.798;2022-09-09T15:13:38;17.40;99.90
31765;DHT22;18338;53.240;8.798;2022-09-09T15:16:14;17.40;99.90
31765;DHT22;18338;53.240;8.798;2022-09-09T15:18:42;17.40;99.90
31765;DHT22;18338;53.240;8.798;2022-09-09T15:21:14;17.30;99.90
31765;DHT22;18338;53.240;8.798;2022-09-09T15:23:42;17.30;99.90
31765;DHT22;18338;53.240;8.798;2022-09-09T15:26:10;17.30;99.90
31765;DHT22;18338;53.240;8.798;2022-09-09T15:28:38;17.30;99.90
31765;DHT22;18338;53.240;8.798;2022-09-09T15:31:12;17.30;99.90
31765;DHT22;18338;53.240;8.798;2022-09-09T15:33:41;17.30;99.90
31765;DHT22;18338;53.240;8.798;2022-09-09T15:36:24;17.30;99.90
31765;DHT22;18338;53.240;8.798;2022-09-09T15:38:51;17.30;99.90
31765;DHT22;18338;53.240;8.798;2022-09-09T15:41:20;17.30;99.90
31765;DHT22;18338;53.240;8.798;2022-09-09T15:43:52;17.30;99.90
31765;DHT22;18338;53.240;8.798;2022-09-09T15:46:36;17.30;99.90
31765;DHT22;18338;53.240;8.798;2022-09-09T15:51:40;17.20;99.90
31765;DHT22;18338;53.240;8.798;2022-09-09T15:54:11;17.20;99.90
31765;DHT22;18338;53.240;8.798;2022-09-09T15:56:39;17.20;99.90
31765;DHT22;18338;53.240;8.798;2022-09-09T15:59:06;17.20;99.90
31765;DHT22;18338;53.240;8.798;2022-09-09T16:01:34;17.20;99.90
31765;DHT22;18338;53.240;8.798;2022-09-09T16:04:02;17.20;99.90
31765;DHT22;18338;53.240;8.798;2022-09-09T16:06:32;17.30;99.90
31765;DHT22;18338;53.240;8.798;2022-09-09T16:09:01;17.30;99.90
31765;DHT22;18338;53.240;8.798;2022-09-09T16:14:02;17.30;99.90
31765;DHT22;18338;53.240;8.798;2022-09-09T16:16:34;17.30;99.90
31765;DHT22;18338;53.240;8.798;2022-09-09T16:19:14;17.40;99.90
31765;DHT22;18338;53.240;8.798;2022-09-09T16:21:49;17.40;99.90
31765;DHT22;18338;53.240;8.798;2022-09-09T16:24:24;17.40;99.90
31765;DHT22;18338;53.240;8.798;2022-09-09T16:26:59;17.50;99.90
31765;DHT22;18338;53.240;8.798;2022-09-09T16:29:26;17.50;99.90
31765;DHT22;18338;53.240;8.798;2022-09-09T16:31:54;17.50;99.90
31765;DHT22;18338;53.240;8.798;2022-09-09T16:34:25;17.50;99.90
31765;DHT22;18338;53.240;8.798;2022-09-09T16:36:52;17.50;99.90
31765;DHT22;18338;53.240;8.798;2022-09-09T16:39:20;17.60;99.90
31765;DHT22;18338;53.240;8.798;2022-09-09T16:41:48;17.60;99.90
31765;DHT22;18338;53.240;8.798;2022-09-09T16:44:16;17.70;99.90
31765;DHT22;18338;53.240;8.798;2022-09-09T16:46:45;17.60;99.90
31765;DHT22;18338;53.240;8.798;2022-09-09T16:49:15;17.60;99.90
31765;DHT22;18338;53.240;8.798;2022-09-09T16:51:45;17.60;99.90
31765;DHT22;18338;53.240;8.798;2022-09-09T16:54:14;17.50;99.90
31765;DHT22;18338;53.240;8.798;2022-09-09T16:56:44;17.50;99.90
31765;DHT22;18338;53.240;8.798;2022-09-09T16:59:17;17.40;99.90
31765;DHT22;18338;53.240;8.798;2022-09-09T17:01:46;17.40;99.90
31765;DHT22;18338;53.240;8.798;2022-09-09T17:04:16;17.30;99.90
31765;DHT22;18338;53.240;8.798;2022-09-09T17:06:51;17.20;99.90
31765;DHT22;18338;53.240;8.798;2022-09-09T17:09:19;17.10;99.90
31765;DHT22;18338;53.240;8.798;2022-09-09T17:11:47;17.00;99.90
31765;DHT22;18338;53.240;8.798;2022-09-09T17:14:18;17.00;99.90
31765;DHT22;18338;53.240;8.798;2022-09-09T17:16:45;16.90;99.90
31765;DHT22;18338;53.240;8.798;2022-09-09T17:19:14;16.90;99.90
31765;DHT22;18338;53.240;8.798;2022-09-09T17:21:40;16.80;99.90
31765;DHT22;18338;53.240;8.798;2022-09-09T17:24:27;16.70;99.90
31765;DHT22;18338;53.240;8.798;2022-09-09T17:26:56;16.70;99.90
31765;DHT22;18338;53.240;8.798;2022-09-09T17:29:24;16.70;99.90
31765;DHT22;18338;53.240;8.798;2022-09-09T17:31:51;16.70;99.90
31765;DHT22;18338;53.240;8.798;2022-09-09T17:34:18;16.60;99.90
31765;DHT22;18338;53.240;8.798;2022-09-09T17:36:45;16.50;99.90
31765;DHT22;18338;53.240;8.798;2022-09-09T17:39:12;16.40;99.90
31765;DHT22;18338;53.240;8.798;2022-09-09T17:41:39;16.30;99.90
31765;DHT22;18338;53.240;8.798;2022-09-09T17:44:07;16.20;99.90
31765;DHT22;18338;53.240;8.798;2022-09-09T17:46:37;16.10;99.90
31765;DHT22;18338;53.240;8.798;2022-09-09T17:49:09;16.00;99.90
31765;DHT22;18338;53.240;8.798;2022-09-09T17:51:37;16.00;99.90
31765;DHT22;18338;53.240;8.798;2022-09-09T17:54:06;15.90;99.90
31765;DHT22;18338;53.240;8.798;2022-09-09T17:56:35;15.80;99.90
31765;DHT22;18338;53.240;8.798;2022-09-09T17:59:04;15.70;99.90
31765;DHT22;18338;53.240;8.798;2022-09-09T18:01:34;15.60;99.90
31765;DHT22;18338;53.240;8.798;2022-09-09T18:04:06;15.60;99.90